sensor_id;sensor_type;location;lat;lon;timestamp;pressure;altitude;pressure_sealevel;temperature;humidity
44872;BME280;30602;51.060;17.226;2022-07-10T00:01:49;101668.79;;;15.36;75.87
44872;BME280;30602;51.060;17.226;2022-07-10T00:05:38;101644.02;;;15.14;76.45
44872;BME280;30602;51.060;17.226;2022-07-10T00:09:18;101659.95;;;15.22;76.83
44872;BME280;30602;51.060;17.226;2022-07-10T00:13:10;101645.11;;;15.14;77.03
44872;BME280;30602;51.060;17.226;2022-07-10T00:16:53;101655.28;;;15.25;77.16
44872;BME280;30602;51.060;17.226;2022-07-10T00:20:20;101662.13;;;15.22;77.58
44872;BME280;30602;51.060;17.226;2022-07-10T00:24:33;101668.00;;;15.28;77.52
44872;BME280;30602;51.060;17.226;2022-07-10T00:28:34;101665.84;;;15.31;77.81
44872;BME280;30602;51.060;17.226;2022-07-10T00:33:19;101654.48;;;15.29;78.02
44872;BME280;30602;51.060;17.226;2022-07-10T00:37:25;101655.13;;;15.20;78.67
44872;BME280;30602;51.060;17.226;2022-07-10T00:41:08;101657.84;;;15.16;79.00
44872;BME280;30602;51.060;17.226;2022-07-10T00:45:06;101654.34;;;15.13;79.38
44872;BME280;30602;51.060;17.226;2022-07-10T00:48:32;101647.73;;;15.20;79.18
44872;BME280;30602;51.060;17.226;2022-07-10T00:52:25;101649.79;;;15.06;79.73
44872;BME280;30602;51.060;17.226;2022-07-10T00:56:09;101653.34;;;15.02;79.88
44872;BME280;30602;51.060;17.226;2022-07-10T01:00:24;101656.11;;;15.02;79.94
44872;BME280;30602;51.060;17.226;2022-07-10T01:03:49;101645.91;;;14.84;80.47
44872;BME280;30602;51.060;17.226;2022-07-10T01:07:02;101660.15;;;14.77;81.29
44872;BME280;30602;51.060;17.226;2022-07-10T01:10:48;101644.66;;;14.58;81.77
44872;BME280;30602;51.060;17.226;2022-07-10T01:14:17;101652.84;;;14.70;81.81
44872;BME280;30602;51.060;17.226;2022-07-10T01:17:51;101646.84;;;14.77;81.79
44872;BME280;30602;51.060;17.226;2022-07-10T01:24:59;101648.89;;;14.79;81.71
44872;BME280;30602;51.060;17.226;2022-07-10T01:28:21;101633.27;;;14.61;81.80
44872;BME280;30602;51.060;17.226;2022-07-10T01:32:19;101654.06;;;14.59;82.40
44872;BME280;30602;51.060;17.226;2022-07-10T01:36:00;101659.22;;;14.64;82.44
44872;BME280;30602;51.060;17.226;2022-07-10T01:39:28;101662.14;;;14.59;82.60
44872;BME280;30602;51.060;17.226;2022-07-10T01:42:38;101644.34;;;14.50;82.58
44872;BME280;30602;51.060;17.226;2022-07-10T01:46:10;101660.84;;;14.47;83.07
44872;BME280;30602;51.060;17.226;2022-07-10T01:49:48;101656.78;;;14.42;83.46
44872;BME280;30602;51.060;17.226;2022-07-10T01:52:57;101662.17;;;14.36;83.77
44872;BME280;30602;51.060;17.226;2022-07-10T01:56:20;101658.14;;;14.33;84.01
44872;BME280;30602;51.060;17.226;2022-07-10T02:03:52;101641.65;;;14.20;84.58
44872;BME280;30602;51.060;17.226;2022-07-10T02:07:32;101653.17;;;14.24;84.46
44872;BME280;30602;51.060;17.226;2022-07-10T02:11:01;101663.94;;;14.21;84.89
44872;BME280;30602;51.060;17.226;2022-07-10T02:14:29;101663.29;;;14.09;86.04
44872;BME280;30602;51.060;17.226;2022-07-10T02:19:16;101664.91;;;14.10;85.83
44872;BME280;30602;51.060;17.226;2022-07-10T02:22:25;101666.52;;;14.00;86.26
44872;BME280;30602;51.060;17.226;2022-07-10T02:26:04;101668.31;;;13.97;86.27
44872;BME280;30602;51.060;17.226;2022-07-10T02:29:28;101671.36;;;13.99;86.47
44872;BME280;30602;51.060;17.226;2022-07-10T02:33:01;101664.86;;;13.99;86.38
44872;BME280;30602;51.060;17.226;2022-07-10T02:36:21;101663.35;;;14.01;85.57
44872;BME280;30602;51.060;17.226;2022-07-10T02:40:05;101657.27;;;13.95;85.00
44872;BME280;30602;51.060;17.226;2022-07-10T02:43:47;101663.68;;;14.02;83.73
44872;BME280;30602;51.060;17.226;2022-07-10T02:46:57;101664.78;;;14.05;82.67
44872;BME280;30602;51.060;17.226;2022-07-10T02:50:18;101647.30;;;13.89;82.47
44872;BME280;30602;51.060;17.226;2022-07-10T02:57:50;101664.28;;;14.19;81.11
44872;BME280;30602;51.060;17.226;2022-07-10T03:01:01;101668.52;;;14.21;80.28
44872;BME280;30602;51.060;17.226;2022-07-10T03:04:43;101667.49;;;14.18;80.66
44872;BME280;30602;51.060;17.226;2022-07-10T03:08:23;101664.67;;;14.14;80.63
44872;BME280;30602;51.060;17.226;2022-07-10T03:12:03;101668.13;;;14.11;79.50
44872;BME280;30602;51.060;17.226;2022-07-10T03:15:27;101673.02;;;14.10;79.74
44872;BME280;30602;51.060;17.226;2022-07-10T03:18:56;101677.51;;;14.16;79.44
44872;BME280;30602;51.060;17.226;2022-07-10T03:22:36;101664.96;;;14.11;79.05
44872;BME280;30602;51.060;17.226;2022-07-10T03:25:57;101676.17;;;14.28;78.72
44872;BME280;30602;51.060;17.226;2022-07-10T03:29:17;101675.27;;;14.12;79.45
44872;BME280;30602;51.060;17.226;2022-07-10T03:33:04;101676.88;;;14.14;79.20
44872;BME280;30602;51.060;17.226;2022-07-10T03:36:29;101675.33;;;14.06;79.49
44872;BME280;30602;51.060;17.226;2022-07-10T03:39:57;101670.91;;;14.00;79.84
44872;BME280;30602;51.060;17.226;2022-07-10T03:43:38;101655.38;;;13.79;80.43
44872;BME280;30602;51.060;17.226;2022-07-10T03:48:13;101675.08;;;13.91;79.93
44872;BME280;30602;51.060;17.226;2022-07-10T03:51:53;101674.89;;;13.99;79.30
44872;BME280;30602;51.060;17.226;2022-07-10T03:55:33;101675.36;;;13.89;79.12
44872;BME280;30602;51.060;17.226;2022-07-10T03:58:41;101670.41;;;13.77;79.76
44872;BME280;30602;51.060;17.226;2022-07-10T04:02:42;101672.47;;;13.80;79.74
44872;BME280;30602;51.060;17.226;2022-07-10T04:06:01;101675.05;;;13.78;79.82
44872;BME280;30602;51.060;17.226;2022-07-10T04:09:24;101681.05;;;13.87;79.64
44872;BME280;30602;51.060;17.226;2022-07-10T04:13:04;101680.52;;;14.00;79.31
44872;BME280;30602;51.060;17.226;2022-07-10T04:16:44;101682.27;;;14.24;78.38
44872;BME280;30602;51.060;17.226;2022-07-10T04:20:12;101672.93;;;14.51;76.86
44872;BME280;30602;51.060;17.226;2022-07-10T04:23:44;101679.02;;;14.59;75.58
44872;BME280;30602;51.060;17.226;2022-07-10T04:26:51;101677.85;;;14.49;74.69
44872;BME280;30602;51.060;17.226;2022-07-10T04:30:20;101670.27;;;14.47;74.81
44872;BME280;30602;51.060;17.226;2022-07-10T04:33:30;101667.26;;;14.58;73.40
44872;BME280;30602;51.060;17.226;2022-07-10T04:36:51;101663.59;;;14.73;73.38
44872;BME280;30602;51.060;17.226;2022-07-10T04:40:22;101664.20;;;14.90;72.04
44872;BME280;30602;51.060;17.226;2022-07-10T04:43:41;101643.77;;;14.88;70.50
44872;BME280;30602;51.060;17.226;2022-07-10T04:47:20;101671.45;;;14.94;71.11
44872;BME280;30602;51.060;17.226;2022-07-10T04:50:40;101680.32;;;14.88;71.23
44872;BME280;30602;51.060;17.226;2022-07-10T04:54:08;101673.68;;;14.87;71.48
44872;BME280;30602;51.060;17.226;2022-07-10T04:58:15;101671.74;;;14.83;71.82
44872;BME280;30602;51.060;17.226;2022-07-10T05:01:25;101670.95;;;14.89;72.06
44872;BME280;30602;51.060;17.226;2022-07-10T05:04:54;101676.07;;;14.85;71.62
44872;BME280;30602;51.060;17.226;2022-07-10T05:08:17;101674.22;;;14.88;71.21
44872;BME280;30602;51.060;17.226;2022-07-10T05:11:55;101676.13;;;14.68;72.21
44872;BME280;30602;51.060;17.226;2022-07-10T05:16:08;101678.66;;;14.69;72.90
44872;BME280;30602;51.060;17.226;2022-07-10T05:19:15;101675.39;;;14.67;73.15
44872;BME280;30602;51.060;17.226;2022-07-10T05:23:28;101668.94;;;14.70;73.21
44872;BME280;30602;51.060;17.226;2022-07-10T05:26:49;101670.51;;;14.70;72.64
44872;BME280;30602;51.060;17.226;2022-07-10T05:30:08;101672.87;;;14.67;72.33
44872;BME280;30602;51.060;17.226;2022-07-10T05:33:41;101673.01;;;14.94;71.24
44872;BME280;30602;51.060;17.226;2022-07-10T05:37:31;101672.95;;;14.92;69.58
44872;BME280;30602;51.060;17.226;2022-07-10T05:41:02;101675.22;;;14.85;69.78
44872;BME280;30602;51.060;17.226;2022-07-10T05:44:35;101677.16;;;14.83;69.44
44872;BME280;30602;51.060;17.226;2022-07-10T05:48:45;101677.44;;;14.84;69.23
44872;BME280;30602;51.060;17.226;2022-07-10T05:52:13;101682.48;;;14.78;69.53
44872;BME280;30602;51.060;17.226;2022-07-10T05:56:12;101677.18;;;14.86;70.04
44872;BME280;30602;51.060;17.226;2022-07-10T05:59:41;101658.23;;;15.06;68.61
44872;BME280;30602;51.060;17.226;2022-07-10T06:03:42;101677.03;;;15.44;67.55
44872;BME280;30602;51.060;17.226;2022-07-10T06:07:15;101681.88;;;15.36;66.73
44872;BME280;30602;51.060;17.226;2022-07-10T06:10:47;101681.73;;;15.11;65.95
44872;BME280;30602;51.060;17.226;2022-07-10T06:14:41;101675.99;;;15.09;65.81
44872;BME280;30602;51.060;17.226;2022-07-10T06:18:12;101678.34;;;15.26;65.65
44872;BME280;30602;51.060;17.226;2022-07-10T06:21:40;101676.08;;;15.37;64.68
44872;BME280;30602;51.060;17.226;2022-07-10T06:25:19;101669.97;;;15.56;64.41
44872;BME280;30602;51.060;17.226;2022-07-10T06:28:58;101668.83;;;15.78;64.65
44872;BME280;30602;51.060;17.226;2022-07-10T06:33:16;101663.23;;;15.84;64.65
44872;BME280;30602;51.060;17.226;2022-07-10T06:37:15;101659.03;;;16.08;63.78
44872;BME280;30602;51.060;17.226;2022-07-10T06:45:18;101666.65;;;16.09;60.49
44872;BME280;30602;51.060;17.226;2022-07-10T06:49:09;101661.44;;;15.99;59.77
44872;BME280;30602;51.060;17.226;2022-07-10T06:52:38;101641.92;;;15.86;61.12
44872;BME280;30602;51.060;17.226;2022-07-10T06:56:01;101661.58;;;15.88;60.72
44872;BME280;30602;51.060;17.226;2022-07-10T06:59:12;101660.28;;;15.83;61.57
44872;BME280;30602;51.060;17.226;2022-07-10T07:02:32;101664.55;;;16.03;61.80
44872;BME280;30602;51.060;17.226;2022-07-10T07:06:32;101662.95;;;15.92;60.75
44872;BME280;30602;51.060;17.226;2022-07-10T07:10:07;101656.68;;;15.91;59.97
44872;BME280;30602;51.060;17.226;2022-07-10T07:13:16;101653.86;;;16.00;58.72
44872;BME280;30602;51.060;17.226;2022-07-10T07:17:07;101658.84;;;16.29;58.27
44872;BME280;30602;51.060;17.226;2022-07-10T07:20:54;101656.12;;;16.79;58.80
44872;BME280;30602;51.060;17.226;2022-07-10T07:25:10;101649.48;;;16.47;58.45
44872;BME280;30602;51.060;17.226;2022-07-10T07:28:32;101650.40;;;16.20;58.62
44872;BME280;30602;51.060;17.226;2022-07-10T07:31:44;101665.77;;;16.15;59.54
44872;BME280;30602;51.060;17.226;2022-07-10T07:35:06;101662.13;;;16.04;58.61
44872;BME280;30602;51.060;17.226;2022-07-10T07:38:55;101669.73;;;15.85;58.49
44872;BME280;30602;51.060;17.226;2022-07-10T07:42:25;101665.62;;;15.89;58.23
44872;BME280;30602;51.060;17.226;2022-07-10T07:45:32;101669.71;;;15.68;59.45
44872;BME280;30602;51.060;17.226;2022-07-10T07:49:24;101672.55;;;15.49;59.35
44872;BME280;30602;51.060;17.226;2022-07-10T07:52:51;101682.57;;;15.43;60.26
44872;BME280;30602;51.060;17.226;2022-07-10T07:56:34;101682.31;;;15.26;60.66
44872;BME280;30602;51.060;17.226;2022-07-10T08:00:15;101680.83;;;15.32;60.90
44872;BME280;30602;51.060;17.226;2022-07-10T08:07:42;101662.19;;;15.53;60.04
44872;BME280;30602;51.060;17.226;2022-07-10T08:11:19;101671.71;;;15.64;60.22
44872;BME280;30602;51.060;17.226;2022-07-10T08:18:52;101653.32;;;15.77;59.54
44872;BME280;30602;51.060;17.226;2022-07-10T08:22:02;101667.29;;;15.98;60.12
44872;BME280;30602;51.060;17.226;2022-07-10T08:26:03;101666.30;;;15.91;57.43
44872;BME280;30602;51.060;17.226;2022-07-10T08:29:26;101671.03;;;15.76;58.90
44872;BME280;30602;51.060;17.226;2022-07-10T08:33:41;101671.70;;;15.68;59.28
44872;BME280;30602;51.060;17.226;2022-07-10T08:36:50;101675.10;;;15.70;59.28
44872;BME280;30602;51.060;17.226;2022-07-10T08:40:24;101661.41;;;15.78;59.51
44872;BME280;30602;51.060;17.226;2022-07-10T08:43:36;101660.06;;;15.97;59.13
44872;BME280;30602;51.060;17.226;2022-07-10T08:46:57;101656.66;;;16.27;58.86
44872;BME280;30602;51.060;17.226;2022-07-10T08:50:40;101658.38;;;16.10;57.69
44872;BME280;30602;51.060;17.226;2022-07-10T08:54:05;101658.73;;;16.09;58.35
44872;BME280;30602;51.060;17.226;2022-07-10T08:57:26;101661.70;;;15.81;57.45
44872;BME280;30602;51.060;17.226;2022-07-10T09:00:58;101664.27;;;15.58;57.73
44872;BME280;30602;51.060;17.226;2022-07-10T09:04:41;101670.71;;;15.55;58.52
44872;BME280;30602;51.060;17.226;2022-07-10T09:12:26;101679.07;;;15.40;59.81
44872;BME280;30602;51.060;17.226;2022-07-10T09:16:34;101678.02;;;15.40;58.97
44872;BME280;30602;51.060;17.226;2022-07-10T09:20:05;101679.23;;;15.46;60.47
44872;BME280;30602;51.060;17.226;2022-07-10T09:23:39;101677.76;;;15.59;60.42
44872;BME280;30602;51.060;17.226;2022-07-10T09:26:59;101679.10;;;15.68;59.10
44872;BME280;30602;51.060;17.226;2022-07-10T09:31:06;101664.51;;;15.63;57.89
44872;BME280;30602;51.060;17.226;2022-07-10T09:34:41;101670.42;;;16.16;59.52
44872;BME280;30602;51.060;17.226;2022-07-10T09:38:23;101665.81;;;16.13;56.20
44872;BME280;30602;51.060;17.226;2022-07-10T09:45:41;101659.78;;;16.65;55.34
44872;BME280;30602;51.060;17.226;2022-07-10T09:52:23;101647.96;;;16.68;54.16
44872;BME280;30602;51.060;17.226;2022-07-10T09:56:02;101670.85;;;16.32;56.16
44872;BME280;30602;51.060;17.226;2022-07-10T09:59:34;101645.93;;;15.75;54.03
44872;BME280;30602;51.060;17.226;2022-07-10T10:03:34;101679.26;;;15.84;53.95
44872;BME280;30602;51.060;17.226;2022-07-10T10:06:46;101681.61;;;15.87;55.33
44872;BME280;30602;51.060;17.226;2022-07-10T10:10:20;101678.62;;;16.04;56.27
44872;BME280;30602;51.060;17.226;2022-07-10T10:13:49;101678.37;;;16.04;56.04
44872;BME280;30602;51.060;17.226;2022-07-10T10:17:20;101682.45;;;16.02;56.04
44872;BME280;30602;51.060;17.226;2022-07-10T10:21:01;101676.49;;;16.07;56.95
44872;BME280;30602;51.060;17.226;2022-07-10T10:24:13;101667.97;;;16.05;55.97
44872;BME280;30602;51.060;17.226;2022-07-10T10:27:33;101669.59;;;16.05;56.22
44872;BME280;30602;51.060;17.226;2022-07-10T10:31:00;101676.70;;;16.11;56.07
44872;BME280;30602;51.060;17.226;2022-07-10T10:34:47;101668.44;;;16.33;55.59
44872;BME280;30602;51.060;17.226;2022-07-10T10:42:44;101658.74;;;16.92;53.51
44872;BME280;30602;51.060;17.226;2022-07-10T10:50:35;101630.89;;;16.90;54.45
44872;BME280;30602;51.060;17.226;2022-07-10T10:53:29;101653.13;;;17.00;54.40
44872;BME280;30602;51.060;17.226;2022-07-10T10:57:35;101653.45;;;16.92;53.01
44872;BME280;30602;51.060;17.226;2022-07-10T11:01:25;101650.98;;;16.83;53.17
44872;BME280;30602;51.060;17.226;2022-07-10T11:04:35;101642.35;;;16.86;53.56
44872;BME280;30602;51.060;17.226;2022-07-10T11:12:22;101645.28;;;17.27;54.79
44872;BME280;30602;51.060;17.226;2022-07-10T11:16:47;101643.95;;;17.14;55.56
44872;BME280;30602;51.060;17.226;2022-07-10T11:20:17;101618.56;;;17.49;55.72
44872;BME280;30602;51.060;17.226;2022-07-10T11:24:10;101633.37;;;17.45;55.56
44872;BME280;30602;51.060;17.226;2022-07-10T11:28:21;101639.55;;;17.27;54.88
44872;BME280;30602;51.060;17.226;2022-07-10T11:31:33;101629.81;;;17.20;56.83
44872;BME280;30602;51.060;17.226;2022-07-10T11:34:56;101648.87;;;17.19;56.19
44872;BME280;30602;51.060;17.226;2022-07-10T11:38:38;101560.50;;;16.53;55.59
44872;BME280;30602;51.060;17.226;2022-07-10T11:46:08;101634.11;;;17.26;58.04
44872;BME280;30602;51.060;17.226;2022-07-10T11:49:47;101630.28;;;17.46;55.14
44872;BME280;30602;51.060;17.226;2022-07-10T11:53:25;101633.59;;;17.36;54.38
44872;BME280;30602;51.060;17.226;2022-07-10T11:56:53;101635.98;;;17.30;54.09
44872;BME280;30602;51.060;17.226;2022-07-10T12:04:38;101640.80;;;16.97;54.09
44872;BME280;30602;51.060;17.226;2022-07-10T12:08:05;101643.44;;;16.93;55.16
44872;BME280;30602;51.060;17.226;2022-07-10T12:11:35;101645.81;;;16.85;56.50
44872;BME280;30602;51.060;17.226;2022-07-10T12:15:07;101648.01;;;16.96;57.90
44872;BME280;30602;51.060;17.226;2022-07-10T12:18:22;101629.02;;;16.87;59.43
44872;BME280;30602;51.060;17.226;2022-07-10T12:21:45;101652.38;;;17.12;58.52
44872;BME280;30602;51.060;17.226;2022-07-10T12:29:20;101659.47;;;17.08;57.81
44872;BME280;30602;51.060;17.226;2022-07-10T12:33:10;101655.62;;;17.00;58.45
44872;BME280;30602;51.060;17.226;2022-07-10T12:36:26;101662.34;;;16.90;57.03
44872;BME280;30602;51.060;17.226;2022-07-10T12:40:08;101660.10;;;16.96;56.17
44872;BME280;30602;51.060;17.226;2022-07-10T12:43:33;101654.32;;;17.46;56.03
44872;BME280;30602;51.060;17.226;2022-07-10T12:46:43;101644.70;;;17.88;56.12
44872;BME280;30602;51.060;17.226;2022-07-10T12:50:23;101649.90;;;17.94;52.22
44872;BME280;30602;51.060;17.226;2022-07-10T12:53:55;101663.03;;;17.78;52.27
44872;BME280;30602;51.060;17.226;2022-07-10T12:57:04;101656.44;;;17.53;50.34
44872;BME280;30602;51.060;17.226;2022-07-10T13:00:34;101656.21;;;17.43;51.07
44872;BME280;30602;51.060;17.226;2022-07-10T13:04:33;101667.09;;;17.23;50.49
44872;BME280;30602;51.060;17.226;2022-07-10T13:12:03;101682.54;;;16.77;55.04
44872;BME280;30602;51.060;17.226;2022-07-10T13:15:55;101694.79;;;15.97;59.69
44872;BME280;30602;51.060;17.226;2022-07-10T13:19:13;101698.05;;;15.59;63.44
44872;BME280;30602;51.060;17.226;2022-07-10T13:22:33;101699.89;;;15.46;67.74
44872;BME280;30602;51.060;17.226;2022-07-10T13:25:45;101701.45;;;15.36;70.33
44872;BME280;30602;51.060;17.226;2022-07-10T13:28:59;101688.20;;;15.71;71.67
44872;BME280;30602;51.060;17.226;2022-07-10T13:32:32;101682.62;;;16.20;73.11
44872;BME280;30602;51.060;17.226;2022-07-10T13:36:17;101674.16;;;16.67;70.60
44872;BME280;30602;51.060;17.226;2022-07-10T13:39:59;101674.55;;;16.97;68.08
44872;BME280;30602;51.060;17.226;2022-07-10T13:43:26;101670.98;;;16.98;65.22
44872;BME280;30602;51.060;17.226;2022-07-10T13:46:41;101666.67;;;17.15;62.66
44872;BME280;30602;51.060;17.226;2022-07-10T13:50:52;101655.30;;;17.56;59.46
44872;BME280;30602;51.060;17.226;2022-07-10T13:54:01;101600.44;;;17.89;57.45
44872;BME280;30602;51.060;17.226;2022-07-10T13:58:47;101645.24;;;18.66;56.75
44872;BME280;30602;51.060;17.226;2022-07-10T14:02:16;101614.57;;;18.89;52.43
44872;BME280;30602;51.060;17.226;2022-07-10T14:06:00;101629.17;;;18.42;51.41
44872;BME280;30602;51.060;17.226;2022-07-10T14:09:37;101642.89;;;17.99;52.06
44872;BME280;30602;51.060;17.226;2022-07-10T14:13:31;101637.16;;;17.92;53.32
44872;BME280;30602;51.060;17.226;2022-07-10T14:17:19;101637.98;;;18.20;49.62
44872;BME280;30602;51.060;17.226;2022-07-10T14:20:42;101631.81;;;18.39;49.78
44872;BME280;30602;51.060;17.226;2022-07-10T14:28:22;101609.27;;;18.61;47.56
44872;BME280;30602;51.060;17.226;2022-07-10T14:32:06;101630.27;;;19.01;48.95
44872;BME280;30602;51.060;17.226;2022-07-10T14:35:53;101632.79;;;19.34;46.21
44872;BME280;30602;51.060;17.226;2022-07-10T14:39:21;101618.62;;;19.52;44.92
44872;BME280;30602;51.060;17.226;2022-07-10T14:42:44;101624.46;;;19.00;45.15
44872;BME280;30602;51.060;17.226;2022-07-10T14:46:40;101581.66;;;18.11;46.47
44872;BME280;30602;51.060;17.226;2022-07-10T14:50:00;101611.26;;;18.17;47.56
44872;BME280;30602;51.060;17.226;2022-07-10T14:53:21;101569.27;;;17.69;48.02
44872;BME280;30602;51.060;17.226;2022-07-10T14:57:26;101648.92;;;18.09;48.76
44872;BME280;30602;51.060;17.226;2022-07-10T15:00:47;101643.04;;;18.08;49.53
44872;BME280;30602;51.060;17.226;2022-07-10T15:04:05;101641.33;;;17.90;48.42
44872;BME280;30602;51.060;17.226;2022-07-10T15:07:49;101646.15;;;17.81;48.14
44872;BME280;30602;51.060;17.226;2022-07-10T15:12:04;101583.13;;;17.43;47.26
44872;BME280;30602;51.060;17.226;2022-07-10T15:15:29;101647.97;;;17.74;47.37
44872;BME280;30602;51.060;17.226;2022-07-10T15:18:52;101660.77;;;17.91;47.48
44872;BME280;30602;51.060;17.226;2022-07-10T15:22:14;101656.68;;;17.82;48.01
44872;BME280;30602;51.060;17.226;2022-07-10T15:25:37;101663.23;;;17.68;48.72
44872;BME280;30602;51.060;17.226;2022-07-10T15:29:21;101642.85;;;17.34;50.10
44872;BME280;30602;51.060;17.226;2022-07-10T15:32:50;101675.52;;;17.29;52.30
44872;BME280;30602;51.060;17.226;2022-07-10T15:36:38;101678.42;;;17.24;55.77
44872;BME280;30602;51.060;17.226;2022-07-10T15:39:47;101677.26;;;17.08;55.09
44872;BME280;30602;51.060;17.226;2022-07-10T15:43:52;101680.76;;;17.09;54.60
44872;BME280;30602;51.060;17.226;2022-07-10T15:47:07;101681.61;;;17.09;52.69
44872;BME280;30602;51.060;17.226;2022-07-10T15:50:27;101631.48;;;16.75;53.03
44872;BME280;30602;51.060;17.226;2022-07-10T15:53:42;101658.34;;;17.25;53.00
44872;BME280;30602;51.060;17.226;2022-07-10T15:57:23;101563.13;;;16.80;53.30
44872;BME280;30602;51.060;17.226;2022-07-10T16:01:27;101650.70;;;17.88;54.64
44872;BME280;30602;51.060;17.226;2022-07-10T16:04:45;101662.13;;;18.02;53.24
44872;BME280;30602;51.060;17.226;2022-07-10T16:12:00;101661.69;;;18.13;51.73
44872;BME280;30602;51.060;17.226;2022-07-10T16:15:48;101654.22;;;18.07;50.74
44872;BME280;30602;51.060;17.226;2022-07-10T16:19:43;101657.28;;;18.08;51.12
44872;BME280;30602;51.060;17.226;2022-07-10T16:25:12;101659.99;;;18.13;51.79
44872;BME280;30602;51.060;17.226;2022-07-10T16:28:50;101655.15;;;17.96;50.40
44872;BME280;30602;51.060;17.226;2022-07-10T16:32:49;101647.28;;;17.79;50.69
44872;BME280;30602;51.060;17.226;2022-07-10T16:36:10;101662.59;;;17.83;50.50
44872;BME280;30602;51.060;17.226;2022-07-10T16:39:26;101661.63;;;17.74;51.16
44872;BME280;30602;51.060;17.226;2022-07-10T16:42:59;101649.12;;;17.56;51.57
44872;BME280;30602;51.060;17.226;2022-07-10T16:46:11;101637.82;;;17.46;51.71
44872;BME280;30602;51.060;17.226;2022-07-10T16:49:51;101663.51;;;17.57;51.49
44872;BME280;30602;51.060;17.226;2022-07-10T16:53:06;101589.02;;;16.95;51.31
44872;BME280;30602;51.060;17.226;2022-07-10T16:56:56;101668.55;;;17.47;50.66
44872;BME280;30602;51.060;17.226;2022-07-10T17:00:17;101664.32;;;17.51;50.57
44872;BME280;30602;51.060;17.226;2022-07-10T17:03:46;101662.31;;;17.44;50.30
44872;BME280;30602;51.060;17.226;2022-07-10T17:06:59;101674.99;;;17.49;50.10
44872;BME280;30602;51.060;17.226;2022-07-10T17:10:41;101679.65;;;17.42;49.77
44872;BME280;30602;51.060;17.226;2022-07-10T17:13:53;101678.67;;;17.37;49.59
44872;BME280;30602;51.060;17.226;2022-07-10T17:17:04;101684.55;;;17.32;49.80
44872;BME280;30602;51.060;17.226;2022-07-10T17:20:20;101687.34;;;17.29;49.87
44872;BME280;30602;51.060;17.226;2022-07-10T17:24:02;101681.80;;;17.34;50.30
44872;BME280;30602;51.060;17.226;2022-07-10T17:27:13;101687.29;;;17.38;51.14
44872;BME280;30602;51.060;17.226;2022-07-10T17:30:50;101674.70;;;17.22;50.19
44872;BME280;30602;51.060;17.226;2022-07-10T17:34:38;101688.74;;;17.32;50.70
44872;BME280;30602;51.060;17.226;2022-07-10T17:38:10;101688.25;;;17.31;50.21
44872;BME280;30602;51.060;17.226;2022-07-10T17:41:22;101688.69;;;17.26;50.22
44872;BME280;30602;51.060;17.226;2022-07-10T17:44:31;101692.54;;;17.26;50.18
44872;BME280;30602;51.060;17.226;2022-07-10T17:47:43;101694.16;;;17.28;49.38
44872;BME280;30602;51.060;17.226;2022-07-10T17:50:55;101691.86;;;17.41;49.71
44872;BME280;30602;51.060;17.226;2022-07-10T17:54:34;101691.03;;;17.38;49.59
44872;BME280;30602;51.060;17.226;2022-07-10T17:57:58;101691.21;;;17.31;49.89
44872;BME280;30602;51.060;17.226;2022-07-10T18:04:56;101699.67;;;17.27;50.08
44872;BME280;30602;51.060;17.226;2022-07-10T18:08:39;101699.74;;;17.19;50.06
44872;BME280;30602;51.060;17.226;2022-07-10T18:11:58;101601.48;;;16.60;49.73
44872;BME280;30602;51.060;17.226;2022-07-10T18:15:10;101702.43;;;17.27;49.80
44872;BME280;30602;51.060;17.226;2022-07-10T18:18:32;101701.05;;;17.25;50.21
44872;BME280;30602;51.060;17.226;2022-07-10T18:21:44;101700.33;;;17.20;50.58
44872;BME280;30602;51.060;17.226;2022-07-10T18:24:59;101701.71;;;17.13;51.37
44872;BME280;30602;51.060;17.226;2022-07-10T18:28:52;101686.36;;;16.96;51.47
44872;BME280;30602;51.060;17.226;2022-07-10T18:32:09;101703.77;;;16.99;51.77
44872;BME280;30602;51.060;17.226;2022-07-10T18:36:01;101707.52;;;16.95;52.30
44872;BME280;30602;51.060;17.226;2022-07-10T18:39:36;101706.09;;;16.98;52.41
44872;BME280;30602;51.060;17.226;2022-07-10T18:43:26;101677.55;;;16.79;53.30
44872;BME280;30602;51.060;17.226;2022-07-10T18:47:02;101620.56;;;16.28;53.08
44872;BME280;30602;51.060;17.226;2022-07-10T18:50:20;101708.15;;;16.86;53.71
44872;BME280;30602;51.060;17.226;2022-07-10T18:53:34;101712.26;;;16.83;54.65
44872;BME280;30602;51.060;17.226;2022-07-10T18:57:16;101702.04;;;16.69;54.15
44872;BME280;30602;51.060;17.226;2022-07-10T19:00:26;101716.92;;;16.77;54.22
44872;BME280;30602;51.060;17.226;2022-07-10T19:03:37;101695.17;;;16.64;56.69
44872;BME280;30602;51.060;17.226;2022-07-10T19:06:52;101721.95;;;16.77;58.01
44872;BME280;30602;51.060;17.226;2022-07-10T19:10:00;101671.13;;;16.28;57.86
44872;BME280;30602;51.060;17.226;2022-07-10T19:13:23;101698.02;;;16.48;58.05
44872;BME280;30602;51.060;17.226;2022-07-10T19:16:34;101731.28;;;16.65;57.31
44872;BME280;30602;51.060;17.226;2022-07-10T19:19:44;101717.73;;;16.48;58.22
44872;BME280;30602;51.060;17.226;2022-07-10T19:23:02;101733.91;;;16.54;59.06
44872;BME280;30602;51.060;17.226;2022-07-10T19:27:11;101720.76;;;16.39;60.06
44872;BME280;30602;51.060;17.226;2022-07-10T19:30:40;101730.30;;;16.35;60.84
44872;BME280;30602;51.060;17.226;2022-07-10T19:33:52;101730.30;;;16.32;61.99
44872;BME280;30602;51.060;17.226;2022-07-10T19:37:35;101729.23;;;16.21;62.01
44872;BME280;30602;51.060;17.226;2022-07-10T19:41:13;101742.84;;;16.17;61.66